Reinbeck, IA (50669)

6:11 AM CST on December 06, 2016 (GMT -0600)
Hicks | | Change Station

Elev 958 ft 42.36 °N, 92.52 °W | Updated 1 minute ago

Overcast
Overcast
31.6 °F
Feels Like 21 °F
N
14.0
Wind Variable Wind from WNW
Gusts 14.0 mph

Today
High -- | Low -- °F
--% Chance of Precip.
Yesterday
High -- | Low -- °F
Precip. -- in
Pressure 29.80 in
Visibility 8.0 miles
Clouds Overcast 1400 ft
Windchill 21 °F
Dew Point 29 °F
Humidity 90%
Rainfall 0.00 in
Snow Depth Not available.
7:25 AM 4:37 PM
Waxing Crescent, 41% visible
SPECI KALO 061202Z 29011KT 8SM OVC014 00/M02 A2980 RMK AO2 T00001022
Pressure 29.80 in
Visibility 8.0 miles
Clouds Overcast 1400 ft
Windchill 21 °F
Dew Point 29 °F
Humidity 90%
Rainfall 0.00 in
Snow Depth Not available.
7:25 AM 4:37 PM
Waxing Crescent, 41% visible
SPECI KALO 061202Z 29011KT 8SM OVC014 00/M02 A2980 RMK AO2 T00001022

10-Day Weather Forecast

Almanac

Astronomy

Dec. 06, 2016 Rise Set
Actual Time
Civil Twilight
Nautical Twilight
Astronomical Twilight
Moon
Length of Visible Light
Length of Day
Tomorrow will be .
, % of the Moon is Illuminated

Today's Extremes

State Highs State Lows

Community

WunderPhotos

Upload Photos

1,955,936 photos uploaded!

WunderBlog® & News

Nearby

Air Quality

  Air Quality AQ Index Pollutant
Not available.

Snow Depth

Station Depth Elevation

Earthquake Activity

City Distance Mag. Time & Date
Minimum magnitude displayed is 2.5.

Coastal Water Temperatures

Place Temperature

Stations

Nearby Weather Stations

Station Location Temp. Windchill Dew Point Humidity Wind Precip. Elev Updated Type
                   

Watches & Warnings

There are currently no watches in effect.